Portada
METAR-TAF:

METAR-TAF

Aeroports :

Duixanbe, Tadjikistan

latitud: 38-33N, longitud: 068-47E, altitud: 803 m

Observació

L'informe es va fer fa 38 minuts, a les 03:00 UTC
Vent 2 kt amb direcció variable
Temperatura 17°C
Humitat 36%
Pressió 1020 hPa
Visibilitat: 6000 m

METAR: UTDD 220300Z VRB01MPS 6000 NSC 17/02 Q1020 R09/CLRD// NOSIG RMK QFE696/0928

Hora: 08:38 (03:38 UTC)

Pronòstic

L'informe es va fer fa 3 hores i 38 minuts, a les 00:00 UTC
Pronòstic vàlid del 22 a les 01 UTC al 22 a les 13 UTC
Vent 4 kt amb direcció variable
Visibilitat: 6000 m
Escasses núvols a una alçada de 6600 ft, Cumulonimbus.
Núvols disperses a una alçada de 11000 ft
Probabilitat 40% :
Temporalment
l' 22 a les 01 UTC al 22 a les 13 UTC
Visibilitat: 3100 m
calitja
Temporalment
l' 22 a les 07 UTC al 22 a les 13 UTC
Vent 14 kt del Oest

TAF: UTDD 220000Z 2201/2213 VRB02MPS 6000 FEW066CB SCT110 PROB40 TEMPO 2201/2213 3100 HZ TEMPO 2207/2213 28007MPS

Observacions i pronòstics meteorològics de més de 4000 aeroports (METAR i TAF).

Les estacions disponibles són els punts grocs i vermells al mapa.

Posi el ratolí al punt desitjat per veure el nom de l'estació.

Feu clic per veure les observacions i els pronòstics meteorològics.

Per canviar el mapa: feu clic els botons verds amb una creu de color negre per apropar; al botó verd amb un guió per allunyar la imatge; o en les fletxes verdes per a mapes adjacents.


METAR-TAF: